Time;durP1;ratioP1;P1;durP2;ratioP2;P2;SDS_P1;SDS_P2;PMS_P1;PMS_P2;Temp;Humidity;BMP_temperature;BMP_pressure;BME280_temperature;BME280_humidity;BME280_pressure;Samples;Min_cycle;Max_cycle;Signal;HPM_P1;HPM_P2
2021/12/06 00:01:59;;;;;;;5.63;2.67;;;-3.50;93.10;;;;;;2670810;53;20126;-51
2021/12/06 00:04:32;;;;;;;4.57;2.43;;;-3.60;93.20;;;;;;2670811;53;20539;-33
2021/12/06 00:07:04;;;;;;;4.03;1.80;;;-3.60;93.10;;;;;;2670821;53;20086;-35
2021/12/06 00:09:31;;;;;;;3.13;1.83;;;-3.60;93.10;;;;;;2675678;53;20074;-34
2021/12/06 00:11:59;;;;;;;4.23;2.40;;;-3.60;93.20;;;;;;2670927;53;20071;-34
2021/12/06 00:14:33;;;;;;;5.57;2.00;;;-3.60;93.20;;;;;;2670717;53;20171;-33
2021/12/06 00:17:04;;;;;;;7.53;2.03;;;-3.70;93.20;;;;;;2671019;53;20074;-35
2021/12/06 00:19:32;;;;;;;2.40;1.20;;;-3.60;92.80;;;;;;2670694;53;20125;-36
2021/12/06 00:22:00;;;;;;;7.03;4.40;;;-3.70;92.90;;;;;;2670828;53;20455;-36
2021/12/06 00:24:28;;;;;;;2.47;1.20;;;-3.70;92.90;;;;;;2679904;53;20081;-33
2021/12/06 00:26:55;;;;;;;4.17;1.53;;;-3.80;92.90;;;;;;2682832;53;20062;-33
2021/12/06 00:29:22;;;;;;;6.10;2.27;;;-3.80;93.10;;;;;;2687491;53;20137;-34
2021/12/06 00:31:50;;;;;;;2.83;1.50;;;-3.80;93.20;;;;;;2682622;53;20100;-34
2021/12/06 00:34:18;;;;;;;3.63;1.73;;;-3.80;93.10;;;;;;2687226;53;20069;-38
2021/12/06 00:37:05;;;;;;;3.13;1.27;;;-3.80;93.40;;;;;;2687317;53;20054;-34
2021/12/06 00:39:32;;;;;;;5.03;1.10;;;-3.80;93.00;;;;;;2682573;53;20070;-33
2021/12/06 00:41:59;;;;;;;4.00;1.50;;;-3.70;92.80;;;;;;2687176;53;20093;-34
2021/12/06 00:44:26;;;;;;;3.73;1.23;;;-3.80;92.80;;;;;;2682785;53;20074;-33
2021/12/06 00:46:53;;;;;;;5.20;1.67;;;-3.80;92.70;;;;;;2689919;53;20065;-35
2021/12/06 00:49:20;;;;;;;2.23;1.10;;;-3.70;92.60;;;;;;2693856;53;20084;-35
2021/12/06 00:51:47;;;;;;;2.83;1.63;;;-3.80;92.50;;;;;;2698841;53;20429;-33
2021/12/06 00:54:15;;;;;;;2.67;1.57;;;-3.70;92.40;;;;;;2698638;53;20073;-38
2021/12/06 00:56:42;;;;;;;4.37;1.80;;;-3.70;92.60;;;;;;2693871;53;20072;-35
2021/12/06 00:59:10;;;;;;;5.70;2.03;;;-3.70;92.60;;;;;;2698504;53;20536;-37
2021/12/06 01:01:37;;;;;;;2.73;1.17;;;-3.70;92.50;;;;;;2698677;53;20077;-33
2021/12/06 01:04:04;;;;;;;4.93;1.60;;;-3.70;92.50;;;;;;2698689;52;20073;-35
2021/12/06 01:06:31;;;;;;;3.47;1.80;;;-3.70;92.30;;;;;;2698350;53;20072;-34
2021/12/06 01:08:59;;;;;;;2.43;0.87;;;-3.70;92.00;;;;;;2698548;53;20057;-34
2021/12/06 01:11:26;;;;;;;6.67;2.50;;;-3.70;92.20;;;;;;2703056;52;20073;-34
2021/12/06 01:13:53;;;;;;;9.27;2.47;;;-3.70;92.20;;;;;;2698465;53;20246;-34
2021/12/06 01:16:20;;;;;;;14.17;5.83;;;-3.80;92.20;;;;;;2698244;53;20587;-35
2021/12/06 01:18:47;;;;;;;3.67;1.60;;;-3.80;92.60;;;;;;2698640;53;20507;-35
2021/12/06 01:21:53;;;;;;;5.73;1.50;;;-3.80;92.30;;;;;;2698439;53;20069;-34
2021/12/06 01:24:09;;;;;;;5.63;1.50;;;-3.80;92.10;;;;;;2697720;53;20068;-35
2021/12/06 01:26:57;;;;;;;3.03;1.47;;;-3.70;92.20;;;;;;2698540;53;20069;-34
2021/12/06 01:40:19;;;;;;;3.70;1.80;;;-3.90;92.90;;;;;;2698280;53;20538;-35
2021/12/06 01:42:46;;;;;;;2.90;1.27;;;-3.90;92.90;;;;;;2698468;53;20109;-38
2021/12/06 01:45:13;;;;;;;4.03;1.77;;;-3.90;93.10;;;;;;2698425;53;20128;-33
2021/12/06 01:47:40;;;;;;;4.83;1.90;;;-3.90;92.80;;;;;;2694317;53;20072;-55
2021/12/06 01:50:24;;;;;;;3.83;1.47;;;-3.90;92.80;;;;;;2691726;53;20066;-34
2021/12/06 01:52:57;;;;;;;3.43;1.20;;;-3.90;92.90;;;;;;2686865;53;20517;-37
2021/12/06 01:55:31;;;;;;;2.20;1.20;;;-3.90;93.00;;;;;;2696420;53;20230;-33
2021/12/06 01:57:59;;;;;;;5.73;1.70;;;-3.90;93.00;;;;;;2682178;53;20549;-33
2021/12/06 02:00:49;;;;;;;4.13;1.27;;;-3.90;93.10;;;;;;2686875;53;20062;-45
2021/12/06 02:03:16;;;;;;;3.73;1.90;;;-3.90;93.20;;;;;;2682000;53;20070;-34
2021/12/06 02:05:45;;;;;;;4.70;1.70;;;-3.90;93.10;;;;;;2691418;53;20066;-34
2021/12/06 02:08:12;;;;;;;6.73;1.80;;;-3.90;93.10;;;;;;2686929;53;20062;-35
2021/12/06 02:10:39;;;;;;;6.50;1.60;;;-3.90;93.30;;;;;;2686955;53;20128;-32
2021/12/06 02:13:08;;;;;;;3.70;1.20;;;-3.90;93.30;;;;;;2691604;53;20070;-32
2021/12/06 02:15:44;;;;;;;2.13;1.20;;;-3.90;93.00;;;;;;2686608;53;20146;-33
2021/12/06 02:18:27;;;;;;;4.27;1.20;;;-3.90;93.00;;;;;;2682546;53;20538;-33
2021/12/06 02:21:02;;;;;;;2.07;0.70;;;-3.90;93.00;;;;;;2691650;53;20518;-35
2021/12/06 02:23:30;;;;;;;2.57;1.13;;;-4.00;93.10;;;;;;2696148;53;20518;-33
2021/12/06 02:25:57;;;;;;;10.70;1.60;;;-4.00;93.10;;;;;;2689697;53;20074;-33
2021/12/06 02:28:24;;;;;;;2.13;1.30;;;-3.90;93.10;;;;;;2685625;53;20657;-32
2021/12/06 02:30:51;;;;;;;2.73;1.40;;;-3.90;93.30;;;;;;2684816;53;20671;-34
2021/12/06 02:33:18;;;;;;;3.17;1.10;;;-3.90;93.20;;;;;;2685190;53;20135;-33
2021/12/06 02:35:45;;;;;;;4.27;1.60;;;-4.00;93.40;;;;;;2675646;53;20533;-33
2021/12/06 02:38:13;;;;;;;3.13;1.03;;;-4.00;93.50;;;;;;2685067;53;20067;-34
2021/12/06 02:40:40;;;;;;;3.03;1.17;;;-4.00;93.50;;;;;;2685250;53;20066;-34
2021/12/06 02:43:09;;;;;;;8.60;1.57;;;-4.00;93.70;;;;;;2685802;53;20073;-33
2021/12/06 02:45:36;;;;;;;8.97;2.43;;;-4.00;93.80;;;;;;2686048;53;20094;-33
2021/12/06 02:48:05;;;;;;;2.23;1.40;;;-4.00;93.60;;;;;;2694049;53;20523;-36
2021/12/06 02:50:49;;;;;;;4.17;2.30;;;-3.90;93.50;;;;;;2697375;53;20101;-32
2021/12/06 02:53:19;;;;;;;4.38;1.45;;;-4.00;93.60;;;;;;2697544;53;20128;-35
2021/12/06 02:55:53;;;;;;;7.03;1.83;;;-4.00;93.70;;;;;;2688176;53;20526;-34
2021/12/06 02:58:55;;;;;;;6.70;1.87;;;-4.00;93.50;;;;;;2694795;53;20073;-33
2021/12/06 03:01:30;;;;;;;3.33;1.37;;;-4.00;93.60;;;;;;2695152;53;20130;-38
2021/12/06 03:03:58;;;;;;;0.10;0.10;;;-4.00;93.70;;;;;;2703478;52;20448;-36
2021/12/06 03:06:25;;;;;;;8.97;1.33;;;-4.10;93.50;;;;;;2699041;52;20069;-36
2021/12/06 03:09:05;;;;;;;4.13;0.93;;;-4.10;93.80;;;;;;2698919;53;20069;-35
2021/12/06 03:12:00;;;;;;;8.20;2.47;;;-4.10;93.80;;;;;;2699066;53;20073;-34
2021/12/06 03:14:31;;;;;;;0.82;0.50;;;-4.10;93.80;;;;;;2698407;53;20066;-32
2021/12/06 03:17:00;;;;;;;10.73;2.57;;;-4.20;94.00;;;;;;2698862;53;20517;-34
2021/12/06 03:19:27;;;;;;;7.47;0.97;;;-4.30;94.00;;;;;;2698901;53;20061;-36
2021/12/06 03:21:55;;;;;;;3.53;1.63;;;-4.30;94.30;;;;;;2698659;53;20076;-34
2021/12/06 03:24:22;;;;;;;6.47;2.73;;;-4.40;94.40;;;;;;2698801;53;20064;-35
2021/12/06 03:26:50;;;;;;;7.67;2.00;;;-4.40;94.70;;;;;;2699273;53;20506;-33
2021/12/06 03:29:17;;;;;;;5.17;1.73;;;-4.40;94.70;;;;;;2694175;53;20069;-36
2021/12/06 03:31:47;;;;;;;5.77;1.83;;;-4.30;94.70;;;;;;2689517;53;20069;-35
2021/12/06 03:34:15;;;;;;;4.63;1.63;;;-4.50;94.50;;;;;;2699012;53;20178;-34
2021/12/06 03:36:42;;;;;;;5.23;2.43;;;-4.50;94.70;;;;;;2698698;53;20069;-36
2021/12/06 03:39:32;;;;;;;7.07;2.03;;;-4.50;95.00;;;;;;2698935;53;20073;-34
2021/12/06 03:42:02;;;;;;;4.50;1.90;;;-4.60;94.90;;;;;;2693979;53;20061;-32
2021/12/06 03:44:29;;;;;;;3.70;2.10;;;-4.80;94.90;;;;;;2699054;53;20552;-35
2021/12/06 03:47:07;;;;;;;1.60;0.80;;;-4.80;95.50;;;;;;2695885;53;20159;-34
2021/12/06 03:49:34;;;;;;;6.00;1.70;;;-4.80;95.60;;;;;;2687412;53;20096;-34
2021/12/06 03:52:01;;;;;;;9.50;2.07;;;-4.80;95.60;;;;;;2686993;53;20070;-36
2021/12/06 03:54:28;;;;;;;5.37;1.20;;;-4.80;95.80;;;;;;2687073;53;20127;-33
2021/12/06 03:56:56;;;;;;;3.73;1.70;;;-4.80;95.90;;;;;;2686975;53;20089;-33
2021/12/06 03:59:23;;;;;;;3.13;1.07;;;-4.90;95.90;;;;;;2687346;53;20065;-35
2021/12/06 04:01:52;;;;;;;6.13;1.87;;;-4.90;96.10;;;;;;2687151;53;20604;-34
2021/12/06 04:04:19;;;;;;;16.03;2.97;;;-4.90;96.10;;;;;;2687577;53;20070;-34
2021/12/06 04:06:47;;;;;;;8.77;2.40;;;-5.00;95.90;;;;;;2687723;53;20062;-35
2021/12/06 04:09:14;;;;;;;12.93;2.23;;;-5.00;95.90;;;;;;2687299;53;20058;-37
2021/12/06 04:11:44;;;;;;;15.20;2.73;;;-5.10;95.90;;;;;;2683151;53;20070;-34
2021/12/06 04:14:11;;;;;;;8.97;2.50;;;-5.20;95.90;;;;;;2687007;53;20075;-33
2021/12/06 04:16:39;;;;;;;21.27;2.53;;;-5.30;95.90;;;;;;2687410;53;20149;-35
2021/12/06 04:19:09;;;;;;;10.53;2.43;;;-5.30;96.10;;;;;;2687394;53;20537;-33
2021/12/06 04:21:37;;;;;;;30.27;4.03;;;-5.40;96.10;;;;;;2687115;53;20062;-33
2021/12/06 04:24:05;;;;;;;24.87;5.17;;;-5.40;96.30;;;;;;2687342;53;20066;-32
2021/12/06 04:26:32;;;;;;;13.53;3.37;;;-5.40;96.40;;;;;;2681662;53;20134;-34
2021/12/06 04:29:00;;;;;;;19.00;1.83;;;-5.50;96.50;;;;;;2681585;53;20137;-35
2021/12/06 04:31:31;;;;;;;7.07;1.93;;;-5.60;96.60;;;;;;2681417;53;20069;-35
2021/12/06 04:33:58;;;;;;;8.80;2.47;;;-5.60;96.80;;;;;;2681722;53;20066;-35
2021/12/06 04:36:25;;;;;;;26.37;3.67;;;-5.60;97.00;;;;;;2676963;53;20058;-33
2021/12/06 04:38:53;;;;;;;12.30;2.23;;;-5.70;96.90;;;;;;2686423;53;20071;-34
2021/12/06 04:41:20;;;;;;;27.17;3.70;;;-5.70;97.10;;;;;;2677493;53;20059;-56
2021/12/06 04:43:47;;;;;;;14.17;2.80;;;-5.70;97.20;;;;;;2677231;53;20074;-32
2021/12/06 04:46:14;;;;;;;20.77;4.30;;;-5.70;97.40;;;;;;2677038;53;20082;-32
2021/12/06 04:48:41;;;;;;;15.80;2.97;;;-5.70;97.40;;;;;;2688136;53;20068;-33
2021/12/06 04:51:09;;;;;;;17.87;2.97;;;-5.70;97.60;;;;;;2693304;53;20195;-33
2021/12/06 04:53:36;;;;;;;14.43;3.23;;;-5.80;97.30;;;;;;2697642;53;20069;-35
2021/12/06 04:56:15;;;;;;;37.03;8.60;;;-5.70;97.50;;;;;;2692963;53;20068;-36
2021/12/06 04:58:53;;;;;;;12.47;3.83;;;-5.70;97.70;;;;;;2688547;53;20111;-38
2021/12/06 05:01:24;;;;;;;24.47;3.83;;;-5.70;97.70;;;;;;2693313;53;20056;-36
2021/12/06 05:03:51;;;;;;;10.37;2.43;;;-5.70;97.70;;;;;;2694983;53;20570;-51
2021/12/06 05:06:27;;;;;;;8.83;0.97;;;-5.70;97.70;;;;;;2698493;53;20065;-34
2021/12/06 05:09:00;;;;;;;3.80;1.63;;;-5.60;98.10;;;;;;2703259;52;20065;-36
2021/12/06 05:11:29;;;;;;;0.33;0.30;;;-5.50;98.30;;;;;;2694157;53;20621;-36
2021/12/06 05:13:56;;;;;;;4.90;0.83;;;-5.50;98.10;;;;;;2698428;53;20073;-34
2021/12/06 05:16:23;;;;;;;5.03;0.73;;;-5.40;98.00;;;;;;2698520;53;20065;-37
2021/12/06 05:18:51;;;;;;;3.50;1.23;;;-5.30;97.90;;;;;;2698584;53;20143;-33
2021/12/06 05:21:18;;;;;;;0.73;0.73;;;-5.10;97.90;;;;;;2698443;53;20062;-34
2021/12/06 05:23:45;;;;;;;3.07;0.90;;;-5.10;97.70;;;;;;2698386;53;20624;-33
2021/12/06 05:26:12;;;;;;;1.23;0.37;;;-4.90;97.40;;;;;;2698354;53;20456;-33
2021/12/06 05:28:43;;;;;;;6.30;0.70;;;-4.80;97.30;;;;;;2698279;53;20073;-34
2021/12/06 05:31:15;;;;;;;7.30;1.97;;;-4.80;96.90;;;;;;2693656;53;20512;-34
2021/12/06 05:33:50;;;;;;;5.10;0.87;;;-4.70;96.80;;;;;;2693835;53;20658;-35
2021/12/06 05:36:17;;;;;;;8.43;2.35;;;-4.60;96.60;;;;;;2703146;52;20104;-35
2021/12/06 05:38:44;;;;;;;8.43;1.77;;;-4.50;96.40;;;;;;2698322;53;20076;-34
2021/12/06 05:41:11;;;;;;;5.27;2.23;;;-4.30;96.30;;;;;;2698125;53;20096;-36
2021/12/06 05:43:38;;;;;;;6.97;1.87;;;-4.20;96.10;;;;;;2698233;53;20111;-36
2021/12/06 05:46:05;;;;;;;7.13;2.43;;;-4.10;95.70;;;;;;2702940;53;20068;-33
2021/12/06 05:48:32;;;;;;;2.60;0.93;;;-4.00;95.10;;;;;;2688028;53;20074;-36
2021/12/06 05:50:59;;;;;;;6.50;1.70;;;-4.00;94.60;;;;;;2687053;53;20074;-34
2021/12/06 05:53:27;;;;;;;8.30;2.23;;;-3.90;94.70;;;;;;2686695;53;20542;-37
2021/12/06 05:55:54;;;;;;;4.53;1.33;;;-3.80;94.60;;;;;;2686538;53;20066;-51
2021/12/06 05:58:26;;;;;;;7.83;3.03;;;-3.70;94.30;;;;;;2686746;53;20127;-33
2021/12/06 06:00:56;;;;;;;9.17;2.60;;;-3.70;93.90;;;;;;2687017;53;20070;-34
2021/12/06 06:03:23;;;;;;;4.20;1.90;;;-3.60;93.70;;;;;;2686523;53;20062;-33
2021/12/06 06:05:52;;;;;;;2.30;0.63;;;-3.60;93.60;;;;;;2686764;53;20132;-38
2021/12/06 06:08:19;;;;;;;5.60;3.33;;;-3.60;93.40;;;;;;2686839;53;20058;-35
2021/12/06 06:10:47;;;;;;;6.40;2.67;;;-3.50;93.20;;;;;;2686703;53;20128;-33
2021/12/06 06:13:14;;;;;;;10.73;4.13;;;-3.50;93.10;;;;;;2681898;53;20074;-34
2021/12/06 06:15:41;;;;;;;7.53;3.13;;;-3.50;93.20;;;;;;2682045;53;20092;-34
2021/12/06 06:18:09;;;;;;;17.20;4.33;;;-3.50;92.90;;;;;;2686498;53;20066;-41
2021/12/06 06:20:41;;;;;;;15.17;3.20;;;-3.40;93.10;;;;;;2686807;53;20076;-35
2021/12/06 06:23:08;;;;;;;5.80;2.80;;;-3.30;93.00;;;;;;2686880;53;20066;-36
2021/12/06 06:25:35;;;;;;;12.27;3.33;;;-3.30;92.20;;;;;;2686822;53;20554;-34
2021/12/06 06:28:03;;;;;;;14.63;4.73;;;-3.20;92.30;;;;;;2686852;53;20430;-37
2021/12/06 06:30:30;;;;;;;9.10;2.37;;;-3.20;92.60;;;;;;2686389;53;20154;-41
2021/12/06 06:32:57;;;;;;;11.67;4.33;;;-3.20;92.10;;;;;;2686567;53;20078;-38
2021/12/06 06:35:24;;;;;;;8.27;3.57;;;-3.30;92.50;;;;;;2686863;53;20059;-35
2021/12/06 06:37:52;;;;;;;9.60;4.80;;;-3.30;92.60;;;;;;2686592;53;20131;-33
2021/12/06 06:40:19;;;;;;;14.20;4.37;;;-3.30;92.60;;;;;;2687005;53;20066;-34
2021/12/06 06:42:46;;;;;;;11.33;3.90;;;-3.30;92.60;;;;;;2686743;53;20074;-35
2021/12/06 06:45:18;;;;;;;10.13;3.80;;;-3.20;92.50;;;;;;2686465;53;20066;-34
2021/12/06 06:47:45;;;;;;;19.47;4.90;;;-3.30;92.70;;;;;;2693439;53;20069;-41
2021/12/06 06:50:12;;;;;;;13.90;3.37;;;-3.20;93.20;;;;;;2693420;53;20510;-32
2021/12/06 06:52:40;;;;;;;13.10;4.30;;;-3.20;92.60;;;;;;2698048;53;20061;-32
2021/12/06 06:55:07;;;;;;;14.43;5.03;;;-3.10;92.30;;;;;;2698077;53;20061;-32
2021/12/06 06:57:34;;;;;;;19.17;4.23;;;-3.00;92.50;;;;;;2697934;53;20065;-33
2021/12/06 07:00:09;;;;;;;12.53;4.47;;;-3.10;92.20;;;;;;2698022;53;20081;-43
2021/12/06 07:02:37;;;;;;;14.00;4.73;;;-3.30;92.50;;;;;;2697816;53;20073;-33
2021/12/06 07:05:05;;;;;;;19.27;4.87;;;-3.20;92.60;;;;;;2693219;53;20080;-33
2021/12/06 07:07:32;;;;;;;14.93;4.60;;;-3.30;92.90;;;;;;2697977;53;20541;-43
2021/12/06 07:09:59;;;;;;;16.00;3.73;;;-3.30;93.00;;;;;;2697874;52;20065;-37
2021/12/06 07:12:27;;;;;;;14.10;6.03;;;-3.20;93.30;;;;;;2698305;53;20533;-34
2021/12/06 07:14:54;;;;;;;13.63;5.70;;;-3.20;92.80;;;;;;2698207;53;20069;-41
2021/12/06 07:17:21;;;;;;;12.43;4.93;;;-3.20;92.70;;;;;;2697631;53;20123;-34
2021/12/06 07:19:48;;;;;;;21.53;7.27;;;-3.20;92.80;;;;;;2697833;53;20079;-33
2021/12/06 07:22:15;;;;;;;25.43;5.13;;;-3.20;92.60;;;;;;2693017;53;20578;-34
2021/12/06 07:24:42;;;;;;;15.23;5.50;;;-3.10;93.00;;;;;;2697859;53;20061;-35
2021/12/06 07:27:10;;;;;;;10.90;4.03;;;-3.00;92.50;;;;;;2702802;52;20061;-36
2021/12/06 07:29:37;;;;;;;13.07;6.70;;;-2.90;92.50;;;;;;2698623;53;20129;-35
2021/12/06 07:32:05;;;;;;;18.60;3.90;;;-3.00;92.20;;;;;;2694201;53;20151;-34
2021/12/06 07:34:34;;;;;;;14.37;3.50;;;-2.80;92.10;;;;;;2698814;53;20517;-33
2021/12/06 07:37:04;;;;;;;16.13;5.30;;;-2.80;91.80;;;;;;2692174;53;20069;-35
2021/12/06 07:39:31;;;;;;;19.00;4.77;;;-2.60;91.70;;;;;;2692583;53;20065;-34
2021/12/06 07:41:58;;;;;;;16.40;6.53;;;-2.50;90.90;;;;;;2683045;53;20079;-34
2021/12/06 07:44:26;;;;;;;11.20;3.53;;;-2.60;90.90;;;;;;2687819;53;20069;-34
2021/12/06 07:46:53;;;;;;;11.93;4.80;;;-2.90;91.40;;;;;;2685604;53;20640;-32
2021/12/06 07:49:21;;;;;;;10.47;4.63;;;-2.80;91.50;;;;;;2680836;53;20141;-33
2021/12/06 07:51:48;;;;;;;10.67;4.43;;;-2.70;91.20;;;;;;2681290;53;20074;-34
2021/12/06 07:54:15;;;;;;;14.17;5.57;;;-2.80;91.40;;;;;;2671782;53;20078;-36
2021/12/06 07:56:44;;;;;;;16.80;5.10;;;-2.70;91.30;;;;;;2676252;53;20130;-37
2021/12/06 07:59:12;;;;;;;11.90;4.03;;;-2.70;91.10;;;;;;2681001;53;20067;-40
2021/12/06 08:01:39;;;;;;;14.00;5.57;;;-2.60;91.00;;;;;;2671853;53;20059;-34
2021/12/06 08:04:06;;;;;;;13.97;4.40;;;-2.60;90.80;;;;;;2671572;53;20062;-34
2021/12/06 08:06:33;;;;;;;12.63;3.93;;;-2.50;90.90;;;;;;2671595;53;20073;-34
2021/12/06 08:09:01;;;;;;;9.70;2.73;;;-2.40;91.00;;;;;;2681046;53;20129;-32
2021/12/06 08:11:28;;;;;;;14.73;3.03;;;-2.40;90.80;;;;;;2676450;53;20062;-33
2021/12/06 08:13:55;;;;;;;17.53;4.27;;;-2.20;90.30;;;;;;2683317;53;20062;-33
2021/12/06 08:16:28;;;;;;;4.53;2.50;;;-2.20;90.50;;;;;;2687123;53;20326;-33
2021/12/06 08:18:56;;;;;;;7.93;2.60;;;-2.10;90.00;;;;;;2687567;53;20062;-32
2021/12/06 08:21:23;;;;;;;4.57;2.17;;;-2.10;89.30;;;;;;2691851;53;20077;-32
2021/12/06 08:23:51;;;;;;;8.43;4.23;;;-1.80;88.30;;;;;;2680807;53;20067;-32
2021/12/06 08:26:32;;;;;;;8.33;3.40;;;-2.00;87.80;;;;;;2681592;53;20074;-36
2021/12/06 08:29:00;;;;;;;8.47;3.30;;;-1.80;87.60;;;;;;2676498;53;20121;-32
2021/12/06 08:31:29;;;;;;;9.90;3.90;;;-1.80;87.80;;;;;;2676229;53;20462;-32
2021/12/06 08:33:56;;;;;;;19.73;4.77;;;-1.70;88.10;;;;;;2676279;53;20562;-34
2021/12/06 08:36:24;;;;;;;7.47;3.40;;;-1.70;86.60;;;;;;2676139;53;20482;-35
2021/12/06 08:38:51;;;;;;;16.43;5.30;;;-1.70;87.10;;;;;;2671579;53;20070;-32
2021/12/06 08:41:23;;;;;;;13.77;3.57;;;-2.00;87.70;;;;;;2675961;53;20133;-33
2021/12/06 08:43:50;;;;;;;6.67;3.30;;;-1.90;88.40;;;;;;2676022;53;20073;-32
2021/12/06 08:46:21;;;;;;;5.87;1.23;;;-1.80;87.60;;;;;;2680788;53;20093;-32
2021/12/06 08:48:50;;;;;;;10.13;4.70;;;-1.70;88.20;;;;;;2676289;53;20063;-32
2021/12/06 08:51:27;;;;;;;14.27;4.20;;;-1.70;86.60;;;;;;2676010;53;20715;-33
2021/12/06 08:53:55;;;;;;;15.20;3.37;;;-1.90;87.90;;;;;;2671981;53;20059;-39
2021/12/06 08:56:22;;;;;;;18.93;3.53;;;-1.70;86.80;;;;;;2682001;53;20085;-32
2021/12/06 08:58:49;;;;;;;4.90;2.60;;;-1.70;86.40;;;;;;2682243;53;20070;-32
2021/12/06 09:01:17;;;;;;;7.10;2.73;;;-1.80;87.90;;;;;;2686756;53;20066;-32
2021/12/06 09:03:44;;;;;;;8.20;2.37;;;-1.50;86.80;;;;;;2682156;53;20068;-32
2021/12/06 09:06:12;;;;;;;6.53;3.37;;;-1.30;86.10;;;;;;2692002;53;20446;-32
2021/12/06 09:08:41;;;;;;;20.40;4.70;;;-1.30;84.90;;;;;;2687033;53;20058;-33
2021/12/06 09:11:08;;;;;;;17.83;4.43;;;-1.70;85.70;;;;;;2686255;53;20073;-34
2021/12/06 09:13:35;;;;;;;19.77;4.90;;;-1.90;87.90;;;;;;2676870;53;20516;-31
2021/12/06 09:16:04;;;;;;;17.60;4.63;;;-1.70;87.70;;;;;;2676914;53;20526;-34
2021/12/06 09:18:37;;;;;;;13.93;4.33;;;-1.90;88.70;;;;;;2677154;53;20062;-36
2021/12/06 09:21:08;;;;;;;7.43;3.67;;;-1.90;88.20;;;;;;2686301;53;20522;-32
2021/12/06 09:23:35;;;;;;;10.00;2.90;;;-2.00;89.00;;;;;;2677225;53;20066;-34
2021/12/06 09:26:03;;;;;;;3.77;1.57;;;-1.90;88.80;;;;;;2676956;53;20074;-35
2021/12/06 09:28:31;;;;;;;8.83;2.17;;;-2.00;89.30;;;;;;2676956;53;20131;-35
2021/12/06 09:30:58;;;;;;;11.63;4.40;;;-2.00;90.30;;;;;;2676682;53;20225;-35
2021/12/06 09:33:25;;;;;;;12.70;3.23;;;-2.00;89.30;;;;;;2677119;53;20081;-34
2021/12/06 09:35:57;;;;;;;11.47;4.07;;;-2.10;90.00;;;;;;2676778;53;20565;-31
2021/12/06 09:38:33;;;;;;;11.03;3.90;;;-2.00;90.30;;;;;;2677044;53;20125;-31
2021/12/06 09:41:01;;;;;;;8.93;3.43;;;-1.90;89.70;;;;;;2676454;53;20076;-30
2021/12/06 09:43:28;;;;;;;8.50;4.07;;;-1.90;89.40;;;;;;2682149;53;20062;-31
2021/12/06 09:45:55;;;;;;;16.83;4.57;;;-1.80;89.90;;;;;;2682139;53;20066;-34
2021/12/06 09:48:22;;;;;;;16.93;4.27;;;-1.90;88.40;;;;;;2696347;53;20073;-30
2021/12/06 09:51:04;;;;;;;11.27;3.17;;;-2.00;88.90;;;;;;2707439;52;20076;-31
2021/12/06 09:53:33;;;;;;;8.83;3.27;;;-1.90;88.90;;;;;;2690551;53;20070;-30
2021/12/06 09:56:05;;;;;;;2.87;1.37;;;-1.90;89.50;;;;;;2674605;53;20457;-31
2021/12/06 09:58:33;;;;;;;15.90;3.13;;;-1.80;89.20;;;;;;2674642;53;20169;-31
2021/12/06 10:01:27;;;;;;;8.50;2.27;;;-1.70;89.30;;;;;;2674827;53;20075;-31
2021/12/06 10:03:55;;;;;;;18.60;4.77;;;-1.60;89.50;;;;;;2674792;53;20071;-32
2021/12/06 10:06:26;;;;;;;20.33;5.20;;;-1.80;88.90;;;;;;2670249;53;20071;-31
2021/12/06 10:08:54;;;;;;;5.37;2.17;;;-2.00;88.70;;;;;;2679700;53;20102;-32
2021/12/06 10:11:23;;;;;;;10.20;4.33;;;-2.10;90.20;;;;;;2679090;53;20122;-32
2021/12/06 10:13:51;;;;;;;18.97;3.73;;;-2.10;89.40;;;;;;2674479;53;20074;-32
2021/12/06 10:16:19;;;;;;;10.80;3.27;;;-2.10;90.10;;;;;;2674800;53;20071;-34
2021/12/06 10:18:46;;;;;;;5.13;3.03;;;-2.00;90.00;;;;;;2674701;53;20192;-32
2021/12/06 10:21:14;;;;;;;14.57;3.37;;;-1.90;90.00;;;;;;2679409;53;20074;-31
2021/12/06 10:23:42;;;;;;;5.17;2.17;;;-1.80;89.60;;;;;;2676531;53;20074;-31
2021/12/06 10:26:11;;;;;;;3.63;1.73;;;-1.80;89.00;;;;;;2678473;53;20068;-31
2021/12/06 10:28:41;;;;;;;1.07;0.57;;;-1.80;88.30;;;;;;2697446;53;20067;-34
2021/12/06 10:31:08;;;;;;;9.40;2.53;;;-1.90;89.40;;;;;;2697448;53;20531;-32
2021/12/06 10:33:41;;;;;;;9.87;3.30;;;-1.90;88.40;;;;;;2692792;53;20456;-31
2021/12/06 10:36:10;;;;;;;27.53;4.60;;;-2.00;88.70;;;;;;2692846;53;20062;-32
2021/12/06 10:38:44;;;;;;;13.47;3.20;;;-2.10;89.40;;;;;;2692802;53;20069;-36
2021/12/06 10:41:15;;;;;;;14.90;4.33;;;-2.10;90.10;;;;;;2692678;53;20065;-36
2021/12/06 10:44:09;;;;;;;15.77;3.70;;;-2.10;90.10;;;;;;2692650;53;20079;-34
2021/12/06 10:46:43;;;;;;;2.63;1.13;;;-1.90;90.20;;;;;;2691664;53;20069;-31
2021/12/06 10:49:14;;;;;;;4.30;1.97;;;-1.90;89.00;;;;;;2681343;53;20066;-31
2021/12/06 10:51:42;;;;;;;9.20;3.53;;;-1.80;88.80;;;;;;2676459;53;20058;-35
2021/12/06 10:54:19;;;;;;;6.73;3.27;;;-1.90;88.80;;;;;;2676642;53;20074;-31
2021/12/06 10:56:51;;;;;;;12.63;4.03;;;-2.00;89.30;;;;;;2676685;53;20059;-32
2021/12/06 10:59:27;;;;;;;5.23;3.07;;;-1.80;89.20;;;;;;2675387;53;20202;-30
2021/12/06 11:02:04;;;;;;;8.80;4.13;;;-1.90;87.70;;;;;;2680563;53;20067;-30
2021/12/06 11:04:31;;;;;;;8.27;2.33;;;-1.90;88.20;;;;;;2676743;53;20069;-31
2021/12/06 11:07:05;;;;;;;8.63;3.27;;;-1.90;89.30;;;;;;2681370;53;20066;-30
2021/12/06 11:09:35;;;;;;;14.33;4.50;;;-1.90;89.30;;;;;;2682083;53;20074;-33
2021/12/06 11:12:04;;;;;;;8.37;4.13;;;-1.80;89.20;;;;;;2686932;53;20530;-31
2021/12/06 11:14:40;;;;;;;7.93;3.07;;;-1.90;88.80;;;;;;2686793;53;20073;-32
2021/12/06 11:17:19;;;;;;;7.67;1.90;;;-1.80;88.80;;;;;;2686058;53;20523;-32
2021/12/06 11:19:50;;;;;;;6.10;3.13;;;-1.80;88.30;;;;;;2681862;53;20089;-31
2021/12/06 11:22:22;;;;;;;6.10;2.40;;;-1.80;87.80;;;;;;2686740;53;20104;-33
2021/12/06 11:24:51;;;;;;;7.97;3.40;;;-1.90;88.80;;;;;;2686665;53;20066;-32
2021/12/06 11:27:32;;;;;;;3.93;1.57;;;-1.80;88.30;;;;;;2687017;53;20063;-30
2021/12/06 11:30:03;;;;;;;9.50;2.93;;;-1.80;87.40;;;;;;2683484;53;20526;-31
2021/12/06 11:32:36;;;;;;;7.03;1.63;;;-1.80;87.90;;;;;;2682901;53;20176;-31
2021/12/06 11:35:18;;;;;;;6.53;2.63;;;-1.80;88.00;;;;;;2687677;53;20135;-32
2021/12/06 11:37:59;;;;;;;10.80;2.30;;;-1.90;87.70;;;;;;2691849;53;20470;-34
2021/12/06 11:40:30;;;;;;;4.47;2.27;;;-1.90;88.40;;;;;;2687577;53;20074;-31
2021/12/06 11:43:05;;;;;;;2.77;1.13;;;-2.00;87.80;;;;;;2687465;53;20077;-33
2021/12/06 11:45:33;;;;;;;6.38;1.88;;;-2.00;87.60;;;;;;2687450;53;20553;-32
2021/12/06 11:48:14;;;;;;;10.00;3.73;;;-2.00;88.30;;;;;;2691320;53;20627;-31
2021/12/06 11:50:50;;;;;;;5.90;1.20;;;-2.00;88.70;;;;;;2692856;53;20060;-32
2021/12/06 11:53:21;;;;;;;6.67;1.60;;;-2.10;89.20;;;;;;2692819;53;20108;-34
2021/12/06 11:56:01;;;;;;;6.60;2.20;;;-2.00;89.50;;;;;;2692962;53;20069;-34
2021/12/06 11:58:32;;;;;;;18.93;2.67;;;-2.10;89.80;;;;;;2688037;53;20069;-33
2021/12/06 12:01:08;;;;;;;3.23;1.43;;;-2.10;90.10;;;;;;2693110;53;20100;-35
2021/12/06 12:03:36;;;;;;;6.37;2.13;;;-2.10;89.30;;;;;;2692355;53;20564;-33
2021/12/06 12:06:03;;;;;;;5.90;2.20;;;-2.10;90.00;;;;;;2692788;53;20143;-34
2021/12/06 12:08:32;;;;;;;5.20;1.70;;;-2.20;89.50;;;;;;2688044;53;20065;-33
2021/12/06 12:11:00;;;;;;;9.77;3.03;;;-2.20;90.00;;;;;;2693118;53;20074;-34
2021/12/06 12:13:37;;;;;;;9.27;1.80;;;-2.30;89.50;;;;;;2681681;53;20550;-37
2021/12/06 12:16:10;;;;;;;5.43;2.20;;;-2.40;89.30;;;;;;2681662;53;20113;-34
2021/12/06 12:18:39;;;;;;;9.23;1.77;;;-2.40;90.30;;;;;;2681987;53;20574;-33
2021/12/06 12:21:08;;;;;;;16.27;5.83;;;-2.40;90.50;;;;;;2677106;53;20066;-33
2021/12/06 12:23:35;;;;;;;27.77;2.73;;;-2.40;90.50;;;;;;2681676;53;20133;-32
2021/12/06 12:26:12;;;;;;;7.73;1.83;;;-2.40;90.40;;;;;;2681945;53;20530;-35
2021/12/06 12:28:51;;;;;;;9.73;3.17;;;-2.40;90.60;;;;;;2681571;53;20132;-34
2021/12/06 12:31:20;;;;;;;9.20;4.07;;;-2.50;90.20;;;;;;2681572;53;20066;-34
2021/12/06 12:33:48;;;;;;;19.27;3.17;;;-2.60;90.20;;;;;;2674788;53;20075;-48
2021/12/06 12:36:19;;;;;;;10.30;2.93;;;-2.60;90.10;;;;;;2670330;53;20521;-36
2021/12/06 12:38:49;;;;;;;3.10;1.40;;;-2.70;90.20;;;;;;2670478;53;20137;-33
2021/12/06 12:41:18;;;;;;;8.77;2.73;;;-2.70;90.50;;;;;;2670211;53;20075;-33
2021/12/06 12:43:54;;;;;;;5.13;2.27;;;-2.80;90.60;;;;;;2671389;53;20066;-33
2021/12/06 12:46:41;;;;;;;3.80;1.27;;;-2.80;91.00;;;;;;2680997;53;20544;-33
2021/12/06 12:49:17;;;;;;;10.67;3.40;;;-2.80;91.30;;;;;;2686262;53;20066;-35
2021/12/06 12:51:57;;;;;;;11.30;4.57;;;-2.80;91.50;;;;;;2681704;53;20101;-35
2021/12/06 12:54:28;;;;;;;6.73;3.43;;;-2.80;91.60;;;;;;2675018;53;20093;-37
2021/12/06 12:56:59;;;;;;;7.13;3.57;;;-2.90;91.30;;;;;;2670170;53;20094;-33
2021/12/06 12:59:33;;;;;;;4.37;2.40;;;-2.90;91.70;;;;;;2665807;53;20094;-34
2021/12/06 13:02:30;;;;;;;10.50;3.30;;;-2.90;91.80;;;;;;2679737;53;20079;-33
2021/12/06 13:04:57;;;;;;;11.23;2.20;;;-3.00;92.00;;;;;;2688988;53;20747;-35
2021/12/06 13:07:34;;;;;;;9.17;2.90;;;-3.00;92.30;;;;;;2692125;53;20626;-34
2021/12/06 13:10:39;;;;;;;9.40;3.57;;;-3.00;92.40;;;;;;2692107;53;20062;-34